createdAt,value
2019-04-26T00:05:00.916Z,23.30
2019-04-26T00:10:08.259Z,24.75
2019-04-26T00:15:22.934Z,16.85
2019-04-26T00:20:27.245Z,24.63
2019-04-26T00:25:31.285Z,20.00
2019-04-26T00:30:35.207Z,29.25
2019-04-26T00:35:47.448Z,27.07
2019-04-26T00:40:45.285Z,23.35
2019-04-26T00:45:52.646Z,24.43
2019-04-26T00:50:57.393Z,24.02
2019-04-26T00:56:02.376Z,28.40
2019-04-26T01:01:06.293Z,20.27
2019-04-26T01:06:11.857Z,26.52
2019-04-26T01:11:16.726Z,23.15
2019-04-26T01:16:22.752Z,24.77
2019-04-26T01:21:29.566Z,22.93
2019-04-26T01:26:35.026Z,19.52
2019-04-26T01:31:44.696Z,23.25
2019-04-26T01:36:50.415Z,15.28
2019-04-26T01:42:13.530Z,25.62
2019-04-26T01:47:17.949Z,26.97
2019-04-26T01:52:22.871Z,18.57
2019-04-26T01:57:29.617Z,20.05
2019-04-26T02:02:35.095Z,25.25
2019-04-26T02:07:39.320Z,21.95
2019-04-26T02:12:46.131Z,27.75
2019-04-26T02:17:51.970Z,27.48
2019-04-26T02:22:57.460Z,26.95
2019-04-26T02:28:01.372Z,23.55
2019-04-26T02:33:05.399Z,29.57
2019-04-26T02:38:09.302Z,28.47
2019-04-26T02:43:15.323Z,22.67
2019-04-26T02:48:34.281Z,25.68
2019-04-26T02:53:55.855Z,25.20
2019-04-26T02:59:02.688Z,26.62
2019-04-26T03:04:06.861Z,26.73
2019-04-26T03:09:12.419Z,21.07
2019-04-26T03:14:22.489Z,24.23
2019-04-26T03:19:35.707Z,26.80
2019-04-26T03:24:44.826Z,24.80
2019-04-26T03:35:39.865Z,28.40
2019-04-26T03:40:55.643Z,20.95
2019-04-26T03:46:05.265Z,21.85
2019-04-26T03:51:37.190Z,23.98
2019-04-26T03:56:45.634Z,20.90
2019-04-26T04:01:56.601Z,23.27
2019-04-26T04:07:05.030Z,25.12
2019-04-26T04:12:12.469Z,32.03
2019-04-26T04:17:27.079Z,24.47
2019-04-26T04:22:49.356Z,33.02
2019-04-26T04:27:56.601Z,24.37
2019-04-26T04:33:06.148Z,25.77
2019-04-26T04:38:30.977Z,26.45
2019-04-26T04:43:41.949Z,30.65
2019-04-26T04:49:16.503Z,31.12
2019-04-26T04:54:29.134Z,37.58
2019-04-26T04:59:38.792Z,23.95
2019-04-26T05:04:47.220Z,32.65
2019-04-26T05:10:05.893Z,34.20
2019-04-26T05:15:35.442Z,18.53
2019-04-26T05:20:42.377Z,26.00
2019-04-26T05:26:07.107Z,32.55
2019-04-26T05:31:23.983Z,29.45
2019-04-26T05:36:39.848Z,23.98
2019-04-26T05:42:13.646Z,25.95
2019-04-26T05:47:33.586Z,26.40
2019-04-26T05:52:58.277Z,25.17
2019-04-26T05:58:33.146Z,27.17
2019-04-26T06:03:50.851Z,29.98
2019-04-26T06:09:27.472Z,22.05
2019-04-26T06:14:43.163Z,31.12
2019-04-26T06:20:22.762Z,24.02
2019-04-26T06:25:45.161Z,28.95
2019-04-26T06:30:53.946Z,22.15
2019-04-26T06:35:59.863Z,26.63
2019-04-26T06:41:22.490Z,24.98
2019-04-26T06:46:48.710Z,25.82
2019-04-26T06:52:08.649Z,30.37
2019-04-26T06:57:59.356Z,25.65
2019-04-26T07:03:21.677Z,19.77
2019-04-26T07:08:42.868Z,20.40
2019-04-26T07:14:02.707Z,26.93
2019-04-26T07:19:32.524Z,20.82
2019-04-26T07:24:46.681Z,23.30
2019-04-26T07:30:12.039Z,18.87
2019-04-26T07:35:27.938Z,20.27
2019-04-26T07:41:12.575Z,15.32
2019-04-26T07:46:51.011Z,24.35
2019-04-26T07:52:18.927Z,20.35
2019-04-26T07:57:59.149Z,21.95
2019-04-26T08:03:10.805Z,20.10
2019-04-26T08:08:17.777Z,16.67
2019-04-26T08:13:24.323Z,20.70
2019-04-26T08:18:32.745Z,12.90
2019-04-26T08:23:42.261Z,24.37
2019-04-26T08:28:49.286Z,17.02
2019-04-26T08:34:01.648Z,16.07
2019-04-26T08:39:10.928Z,25.43
2019-04-26T08:44:17.591Z,20.70
2019-04-26T08:49:35.130Z,17.73
2019-04-26T08:59:48.844Z,23.55
2019-04-26T09:05:12.132Z,14.90
2019-04-26T09:10:20.028Z,16.32
2019-04-26T09:15:41.988Z,16.97
2019-04-26T09:20:45.915Z,16.62
2019-04-26T09:25:59.083Z,18.75
2019-04-26T09:31:04.829Z,17.03
2019-04-26T09:36:09.881Z,18.70
2019-04-26T09:41:14.011Z,18.07
2019-04-26T09:46:35.048Z,16.82
2019-04-26T09:51:40.470Z,15.85
2019-04-26T09:56:44.840Z,16.45
2019-04-26T10:01:48.766Z,14.85
2019-04-26T10:06:52.796Z,20.48
2019-04-26T10:11:58.463Z,22.27
2019-04-26T10:17:04.037Z,17.48
2019-04-26T10:22:07.962Z,10.70
2019-04-26T10:27:11.986Z,12.25
2019-04-26T10:32:15.916Z,15.13
2019-04-26T10:37:20.195Z,19.25
2019-04-26T10:42:24.485Z,18.23
2019-04-26T10:47:28.398Z,13.05
2019-04-26T10:52:53.637Z,20.35
2019-04-26T10:58:11.183Z,17.87
2019-04-26T11:03:17.169Z,15.05
2019-04-26T11:08:21.289Z,15.75
2019-04-26T11:13:25.380Z,27.60
2019-04-26T11:18:31.191Z,13.15
2019-04-26T11:23:35.223Z,13.10
2019-04-26T11:28:39.110Z,18.17
2019-04-26T11:33:45.132Z,11.57
2019-04-26T11:38:48.947Z,13.08
2019-04-26T11:43:54.456Z,12.43
2019-04-26T11:48:59.449Z,18.60
2019-04-26T11:54:04.412Z,15.72
2019-04-26T11:59:08.341Z,16.55
2019-04-26T12:04:33.567Z,19.32
2019-04-26T12:09:39.515Z,16.50
2019-04-26T12:14:45.919Z,14.73
2019-04-26T12:19:52.269Z,14.63
2019-04-26T12:24:55.415Z,20.20
2019-04-26T12:29:59.344Z,11.85
2019-04-26T12:35:03.247Z,19.12
2019-04-26T12:40:11.342Z,17.05
2019-04-26T12:45:18.360Z,11.53
2019-04-26T12:50:22.738Z,12.58
2019-04-26T12:55:26.767Z,16.12
2019-04-26T13:00:33.101Z,17.25
2019-04-26T13:05:36.221Z,14.45
2019-04-26T13:10:46.413Z,13.88
2019-04-26T13:15:59.777Z,10.90
2019-04-26T13:21:04.334Z,12.15
2019-04-26T13:26:08.652Z,11.68
2019-04-26T13:31:12.713Z,19.00
2019-04-26T13:36:16.811Z,15.25
2019-04-26T13:41:21.683Z,18.75
2019-04-26T13:46:29.980Z,15.95
2019-04-26T13:56:42.357Z,14.85
2019-04-26T14:01:46.586Z,10.63
2019-04-26T14:06:50.616Z,17.67
2019-04-26T14:11:58.037Z,13.93
2019-04-26T14:17:00.308Z,10.35
2019-04-26T14:22:07.119Z,12.03
2019-04-26T14:27:15.114Z,12.43
2019-04-26T14:32:22.832Z,9.30
2019-04-26T14:37:25.134Z,16.30
2019-04-26T14:42:34.252Z,20.88
2019-04-26T14:47:46.876Z,15.13
2019-04-26T14:52:40.190Z,19.30
2019-04-26T14:57:46.722Z,14.35
2019-04-26T15:02:55.849Z,13.45
2019-04-26T15:07:57.293Z,11.03
2019-04-26T15:13:14.211Z,16.85
2019-04-26T15:18:06.992Z,13.72
2019-04-26T15:23:10.918Z,14.07
2019-04-26T15:28:14.770Z,9.15
2019-04-26T15:33:18.645Z,15.65
2019-04-26T15:38:23.115Z,14.90
2019-04-26T15:43:28.590Z,17.23
2019-04-26T15:48:54.644Z,12.80
2019-04-26T15:53:56.144Z,13.72
2019-04-26T15:59:00.028Z,20.30
2019-04-26T16:04:06.376Z,16.42
2019-04-26T16:09:13.797Z,19.23
2019-04-26T16:14:16.202Z,16.62
2019-04-26T16:19:20.096Z,18.25
2019-04-26T16:24:24.075Z,18.80
2019-04-26T16:29:50.845Z,19.67
2019-04-26T16:34:55.013Z,17.70
2019-04-26T16:39:58.913Z,25.60
2019-04-26T16:45:04.679Z,22.73
2019-04-26T16:50:08.715Z,32.28
2019-04-26T16:55:20.500Z,33.48
2019-04-26T17:00:18.244Z,23.52
2019-04-26T17:05:44.031Z,12.50
2019-04-26T17:10:27.653Z,18.30
2019-04-26T17:15:32.322Z,13.83
2019-04-26T17:20:40.494Z,18.57
2019-04-26T17:25:50.372Z,18.77
2019-04-26T17:30:54.304Z,18.45
2019-04-26T17:35:58.250Z,16.40
2019-04-26T17:41:02.108Z,17.55
2019-04-26T17:46:06.043Z,16.70
2019-04-26T17:51:18.350Z,19.62
2019-04-26T17:56:15.868Z,21.73
2019-04-26T18:01:39.968Z,28.27
2019-04-26T18:06:29.881Z,21.37
2019-04-26T18:11:32.853Z,21.12
2019-04-26T18:16:38.198Z,15.13
2019-04-26T18:21:43.829Z,19.50
2019-04-26T18:26:52.239Z,13.78
2019-04-26T18:31:53.640Z,18.65
2019-04-26T18:37:01.840Z,23.87
2019-04-26T18:42:05.833Z,28.83
2019-04-26T18:47:20.555Z,23.75
2019-04-26T18:52:23.369Z,50.95
2019-04-26T18:57:27.867Z,77.47
2019-04-26T19:02:33.310Z,67.92
2019-04-26T19:07:37.549Z,31.60
2019-04-26T19:12:43.590Z,18.40
2019-04-26T19:17:51.742Z,27.85
2019-04-26T19:22:57.457Z,44.47
2019-04-26T19:28:04.315Z,42.65
2019-04-26T19:33:10.067Z,18.52
2019-04-26T19:38:14.862Z,18.82
2019-04-26T19:43:30.363Z,21.20
2019-04-26T19:48:26.174Z,19.27
2019-04-26T19:53:34.563Z,13.03
2019-04-26T19:58:41.977Z,20.75
2019-04-26T20:03:47.217Z,16.57
2019-04-26T20:08:52.028Z,21.77
2019-04-26T20:13:56.137Z,22.48
2019-04-26T20:18:59.984Z,20.05
2019-04-26T20:24:03.913Z,18.27
2019-04-26T20:29:10.164Z,17.80
2019-04-26T20:34:18.167Z,16.95
2019-04-26T20:39:21.172Z,16.45
2019-04-26T20:44:28.471Z,15.10
2019-04-26T20:49:33.372Z,17.67
2019-04-26T20:54:37.294Z,16.95
2019-04-26T20:59:41.658Z,18.37
2019-04-26T21:04:46.806Z,21.65
2019-04-26T21:09:50.683Z,18.55
2019-04-26T21:14:54.561Z,17.70
2019-04-26T21:19:58.740Z,15.45
2019-04-26T21:25:04.774Z,15.00
2019-04-26T21:30:16.322Z,14.98
2019-04-26T21:35:34.058Z,14.25
2019-04-26T21:40:43.771Z,21.10
2019-04-26T21:45:47.827Z,13.00
2019-04-26T21:50:51.693Z,12.85
2019-04-26T21:55:55.574Z,11.85
2019-04-26T22:01:05.293Z,6.05
2019-04-26T22:06:09.151Z,6.35
2019-04-26T22:11:13.984Z,11.90
2019-04-26T22:16:34.409Z,11.12
2019-04-26T22:21:30.808Z,19.17
2019-04-26T22:26:38.033Z,10.10
2019-04-26T22:31:41.437Z,19.17
2019-04-26T22:36:45.886Z,13.40
2019-04-26T22:41:49.827Z,20.05
2019-04-26T22:47:04.917Z,31.35
2019-04-26T22:52:11.146Z,26.82
2019-04-26T22:57:16.415Z,12.98
2019-04-26T23:02:25.860Z,19.82
2019-04-26T23:07:26.414Z,10.63
2019-04-26T23:12:33.711Z,13.38
2019-04-26T23:17:39.084Z,15.15
2019-04-26T23:22:43.031Z,19.00
2019-04-26T23:27:50.496Z,17.30
2019-04-26T23:32:53.277Z,9.38
2019-04-26T23:38:00.924Z,18.80
2019-04-26T23:43:02.949Z,13.38
2019-04-26T23:48:07.761Z,16.10
2019-04-26T23:53:13.848Z,14.68
2019-04-26T23:58:17.960Z,21.73
